Time;durP1;ratioP1;P1;durP2;ratioP2;P2;SDS_P1;SDS_P2;PMS_P1;PMS_P2;Temp;Humidity;BMP_temperature;BMP_pressure;BME280_temperature;BME280_humidity;BME280_pressure;Samples;Min_cycle;Max_cycle;Signal;HPM_P1;HPM_P2
2022/02/05 00:02:25;;;;;;;8.13;7.40;;;9.70;99.90;;;;;;4921883;29;20494;-61
2022/02/05 00:04:57;;;;;;;8.20;7.50;;;9.70;99.90;;;;;;4926585;29;20724;-60
2022/02/05 00:07:32;;;;;;;8.63;7.88;;;9.70;99.90;;;;;;4925989;29;20206;-59
2022/02/05 00:10:24;;;;;;;8.10;7.40;;;9.60;99.90;;;;;;4921514;29;20203;-60
2022/02/05 00:13:13;;;;;;;8.82;8.13;;;9.60;99.90;;;;;;4924498;29;20520;-59
2022/02/05 00:15:55;;;;;;;8.60;7.85;;;9.60;99.90;;;;;;4925639;29;20203;-60
2022/02/05 00:38:23;;;;;;;8.60;7.90;;;9.70;99.90;;;;;;4925431;29;20199;-60
2022/02/05 00:40:58;;;;;;;9.70;8.75;;;9.70;99.90;;;;;;4926569;29;20219;-60
2022/02/05 00:43:30;;;;;;;9.40;8.48;;;9.80;99.90;;;;;;4926273;29;20244;-60
2022/02/05 00:46:01;;;;;;;8.60;7.70;;;9.80;99.90;;;;;;4926095;29;20198;-60
2022/02/05 00:48:33;;;;;;;8.32;7.43;;;9.80;99.90;;;;;;4926454;29;20229;-60
2022/02/05 00:51:12;;;;;;;10.23;6.90;;;9.80;99.90;;;;;;4923932;29;20201;-61
2022/02/05 00:53:46;;;;;;;7.43;6.72;;;9.70;99.90;;;;;;4926344;29;20209;-60
2022/02/05 00:56:22;;;;;;;7.30;6.60;;;9.80;99.90;;;;;;4926968;29;20682;-60
2022/02/05 00:58:54;;;;;;;7.65;6.30;;;9.80;99.90;;;;;;4926204;29;20202;-62
2022/02/05 01:01:24;;;;;;;7.50;6.87;;;9.80;99.90;;;;;;4926244;29;20307;-65
2022/02/05 01:03:57;;;;;;;8.95;6.30;;;9.80;99.90;;;;;;4926032;29;20580;-61
2022/02/05 01:06:31;;;;;;;6.60;6.00;;;9.90;99.90;;;;;;4961230;28;20343;-63
2022/02/05 01:09:05;;;;;;;6.10;5.50;;;9.80;99.90;;;;;;5002834;28;20218;-61
2022/02/05 01:11:39;;;;;;;6.33;5.73;;;9.80;99.90;;;;;;4981218;28;20435;-60
2022/02/05 01:14:13;;;;;;;6.37;5.60;;;9.70;99.90;;;;;;4986245;28;20797;-61
2022/02/05 01:16:52;;;;;;;5.55;5.05;;;9.70;99.90;;;;;;4990487;28;20466;-60
2022/02/05 01:22:20;;;;;;;6.43;4.95;;;9.60;99.90;;;;;;4924661;29;20230;-60
2022/02/05 01:24:53;;;;;;;5.38;4.88;;;9.70;99.90;;;;;;4913314;29;20207;-59
2022/02/05 01:27:35;;;;;;;5.28;4.80;;;9.70;99.90;;;;;;4916395;29;20211;-59
2022/02/05 01:30:18;;;;;;;6.40;5.40;;;9.70;99.90;;;;;;4924275;29;20257;-60
2022/02/05 01:33:15;;;;;;;5.53;4.00;;;9.70;99.90;;;;;;4923273;29;20222;-60
2022/02/05 01:36:03;;;;;;;4.73;4.33;;;9.70;99.90;;;;;;4919381;29;20217;-60
2022/02/05 01:52:51;;;;;;;4.57;4.18;;;9.80;99.90;;;;;;4927418;29;20334;-61
2022/02/05 01:55:36;;;;;;;5.40;4.55;;;9.80;99.90;;;;;;4924817;29;20213;-63
2022/02/05 01:58:18;;;;;;;4.50;4.00;;;9.80;99.90;;;;;;4955729;28;20668;-65
2022/02/05 02:06:45;;;;;;;5.45;4.72;;;9.80;99.90;;;;;;4987386;28;20300;-61
2022/02/05 02:09:44;;;;;;;5.40;4.95;;;9.80;99.90;;;;;;5001309;28;20302;-61
2022/02/05 02:12:19;;;;;;;5.33;4.83;;;9.70;99.90;;;;;;4988620;28;20227;-62
2022/02/05 02:14:57;;;;;;;4.35;3.95;;;9.80;99.90;;;;;;4977249;28;20483;-65
2022/02/05 02:20:33;;;;;;;4.00;3.70;;;9.80;99.90;;;;;;4967219;28;20470;-65
2022/02/05 02:23:20;;;;;;;4.80;4.40;;;9.80;99.90;;;;;;4982275;28;20487;-63
2022/02/05 02:26:00;;;;;;;4.10;3.78;;;9.90;99.90;;;;;;4992094;28;20277;-66
2022/02/05 02:28:44;;;;;;;4.07;3.70;;;9.80;99.90;;;;;;4988388;28;20196;-64
2022/02/05 02:31:20;;;;;;;4.40;3.65;;;9.80;99.90;;;;;;4990947;28;20443;-68
2022/02/05 02:33:54;;;;;;;3.40;3.10;;;9.80;99.90;;;;;;4988409;28;20185;-65
2022/02/05 02:36:32;;;;;;;3.60;3.30;;;9.90;99.90;;;;;;4984186;28;20945;-64
2022/02/05 02:39:10;;;;;;;4.05;3.65;;;9.80;99.90;;;;;;4986197;28;20210;-64
2022/02/05 02:41:47;;;;;;;3.72;3.38;;;9.80;99.90;;;;;;4988813;28;20744;-67
2022/02/05 02:44:29;;;;;;;3.88;3.50;;;9.80;99.90;;;;;;4986035;28;20247;-66
2022/02/05 02:47:00;;;;;;;3.70;3.40;;;9.80;99.90;;;;;;4989453;28;20283;-66
2022/02/05 02:49:45;;;;;;;3.15;2.92;;;9.80;99.90;;;;;;4986152;28;20285;-63
2022/02/05 02:57:58;;;;;;;3.47;3.28;;;9.50;99.90;;;;;;4984769;28;20211;-62
2022/02/05 03:00:29;;;;;;;3.35;3.15;;;9.50;99.90;;;;;;4983670;28;20208;-64
2022/02/05 03:03:00;;;;;;;2.70;2.50;;;9.40;99.90;;;;;;4984034;28;20208;-61
2022/02/05 03:05:31;;;;;;;3.55;3.35;;;9.40;99.90;;;;;;4993358;28;20227;-62
2022/02/05 03:08:02;;;;;;;3.03;2.80;;;9.40;99.90;;;;;;4978763;28;20202;-65
2022/02/05 03:10:34;;;;;;;3.15;2.85;;;9.40;99.90;;;;;;4983279;28;20205;-60
2022/02/05 03:13:05;;;;;;;2.97;2.78;;;9.40;99.90;;;;;;4986873;28;20608;-65
2022/02/05 03:15:37;;;;;;;5.40;3.42;;;9.40;99.90;;;;;;4990028;28;20279;-61
2022/02/05 03:18:12;;;;;;;4.05;3.67;;;9.30;99.90;;;;;;4985074;28;20209;-61
2022/02/05 03:20:43;;;;;;;4.30;4.00;;;9.20;99.90;;;;;;4984385;28;20212;-61
2022/02/05 03:23:14;;;;;;;4.90;4.50;;;9.20;99.90;;;;;;4992798;28;20211;-61
2022/02/05 03:25:46;;;;;;;3.88;3.47;;;9.10;99.90;;;;;;4983944;28;20208;-61
2022/02/05 03:28:17;;;;;;;4.40;4.10;;;9.10;99.90;;;;;;4984217;28;20210;-61
2022/02/05 03:30:48;;;;;;;4.38;3.97;;;9.10;99.90;;;;;;4996609;28;20294;-64
2022/02/05 03:33:19;;;;;;;4.65;4.35;;;9.10;99.90;;;;;;4983465;28;20212;-63
2022/02/05 03:35:50;;;;;;;5.55;5.03;;;9.10;99.90;;;;;;4986066;28;20226;-65
2022/02/05 03:38:21;;;;;;;6.25;5.65;;;9.20;99.90;;;;;;4980458;28;20279;-61
2022/02/05 03:40:53;;;;;;;6.50;5.90;;;9.20;99.90;;;;;;4978915;28;20239;-60
2022/02/05 03:43:24;;;;;;;5.60;5.00;;;9.20;99.90;;;;;;4997837;28;20227;-60
2022/02/05 03:45:56;;;;;;;6.75;5.60;;;9.20;99.90;;;;;;4990780;28;20200;-62
2022/02/05 03:48:26;;;;;;;6.00;5.40;;;9.20;99.90;;;;;;4988340;28;20212;-63
2022/02/05 03:50:57;;;;;;;4.80;4.35;;;9.20;99.90;;;;;;4985615;28;20200;-62
2022/02/05 03:53:28;;;;;;;5.20;4.75;;;9.10;99.90;;;;;;4989070;28;20283;-62
2022/02/05 03:56:04;;;;;;;4.60;4.20;;;8.90;99.90;;;;;;4985799;28;20215;-62
2022/02/05 03:58:35;;;;;;;4.47;4.07;;;8.90;99.90;;;;;;4995869;28;20206;-62
2022/02/05 04:01:08;;;;;;;3.72;3.42;;;8.70;99.90;;;;;;4988000;28;20249;-61
2022/02/05 04:03:39;;;;;;;4.55;4.05;;;8.80;99.90;;;;;;4986603;28;20311;-61
2022/02/05 04:06:12;;;;;;;4.47;4.07;;;8.70;99.90;;;;;;4982431;28;20251;-60
2022/02/05 04:08:43;;;;;;;5.15;4.70;;;8.80;99.90;;;;;;4985584;28;20239;-61
2022/02/05 04:11:32;;;;;;;4.88;4.47;;;8.80;99.90;;;;;;4985405;28;20211;-62
2022/02/05 04:16:51;;;;;;;5.70;5.20;;;8.70;99.90;;;;;;4987168;28;20220;-61
2022/02/05 04:19:22;;;;;;;7.43;5.07;;;8.70;99.90;;;;;;4985060;28;20222;-61
2022/02/05 04:21:53;;;;;;;6.18;5.55;;;8.60;99.90;;;;;;4984813;28;20585;-62
2022/02/05 04:24:25;;;;;;;4.97;4.47;;;8.60;99.90;;;;;;4985526;28;20239;-61
2022/02/05 04:26:57;;;;;;;5.18;4.70;;;8.60;99.90;;;;;;4975688;28;20185;-61
2022/02/05 04:29:29;;;;;;;7.68;5.60;;;8.60;99.90;;;;;;4986710;28;20713;-63
2022/02/05 04:32:00;;;;;;;6.47;5.88;;;8.50;99.90;;;;;;4985209;28;20268;-63
2022/02/05 04:34:31;;;;;;;4.78;4.43;;;8.50;99.90;;;;;;4985243;28;20204;-65
2022/02/05 04:37:05;;;;;;;4.88;4.18;;;8.50;99.90;;;;;;4983231;28;20207;-63
2022/02/05 04:39:40;;;;;;;5.40;3.85;;;8.60;99.90;;;;;;4985795;28;20192;-61
2022/02/05 04:42:18;;;;;;;4.97;4.38;;;8.50;99.90;;;;;;4985997;28;20224;-61
2022/02/05 04:45:19;;;;;;;5.00;4.50;;;8.60;99.90;;;;;;4985337;28;20213;-61
2022/02/05 04:48:17;;;;;;;4.60;3.60;;;8.50;99.90;;;;;;4978869;28;20189;-60
2022/02/05 04:56:34;;;;;;;4.40;4.00;;;8.40;99.90;;;;;;4983497;28;20662;-60
2022/02/05 04:59:27;;;;;;;4.22;3.83;;;8.40;99.90;;;;;;4984472;28;20268;-60
2022/02/05 05:02:29;;;;;;;6.07;4.20;;;8.40;99.90;;;;;;4981212;28;20223;-61
2022/02/05 05:05:14;;;;;;;4.55;4.10;;;8.40;99.90;;;;;;4989529;28;20267;-61
2022/02/05 05:10:57;;;;;;;4.20;3.90;;;8.50;99.90;;;;;;4985239;28;20633;-60
2022/02/05 05:15:13;;;;;;;4.78;3.35;;;8.60;99.90;;;;;;4988873;28;20216;-61
2022/02/05 05:19:26;;;;;;;4.30;3.58;;;8.60;99.90;;;;;;4988987;28;20192;-60
2022/02/05 05:21:59;;;;;;;4.55;4.15;;;8.70;99.90;;;;;;4984655;28;20204;-61
2022/02/05 05:24:30;;;;;;;4.60;4.20;;;8.80;99.90;;;;;;4990347;28;20220;-61
2022/02/05 05:27:01;;;;;;;3.63;3.30;;;8.90;99.90;;;;;;4980795;28;20200;-60
2022/02/05 05:29:32;;;;;;;8.48;3.95;;;9.00;99.90;;;;;;4985451;28;20288;-61
2022/02/05 05:32:06;;;;;;;3.80;3.50;;;9.10;99.90;;;;;;4984246;28;20201;-61
2022/02/05 05:34:37;;;;;;;5.00;3.70;;;9.10;99.90;;;;;;4985661;28;20287;-61
2022/02/05 05:37:08;;;;;;;3.85;3.55;;;9.00;99.90;;;;;;4978570;28;20253;-61
2022/02/05 05:39:40;;;;;;;3.75;3.45;;;8.90;99.90;;;;;;4982587;28;20189;-61
2022/02/05 05:42:16;;;;;;;3.58;3.38;;;8.90;99.90;;;;;;4979526;28;20205;-61
2022/02/05 05:47:52;;;;;;;4.43;3.60;;;8.70;99.90;;;;;;4921154;29;20210;-61
2022/02/05 05:50:58;;;;;;;4.15;3.85;;;8.70;99.90;;;;;;4921346;29;20765;-61
2022/02/05 05:53:32;;;;;;;4.63;4.30;;;8.60;99.90;;;;;;4914506;29;20259;-63
2022/02/05 05:56:03;;;;;;;3.88;3.58;;;8.60;99.90;;;;;;4920019;29;20341;-61
2022/02/05 05:58:35;;;;;;;3.92;3.53;;;8.60;99.90;;;;;;4925314;29;20282;-62
2022/02/05 06:01:05;;;;;;;4.25;3.95;;;8.50;99.90;;;;;;4925536;29;20273;-61
2022/02/05 06:03:40;;;;;;;4.28;3.88;;;8.40;99.90;;;;;;4920726;29;20219;-61
2022/02/05 06:06:11;;;;;;;4.60;4.25;;;8.40;99.90;;;;;;4919119;29;20249;-61
2022/02/05 06:08:42;;;;;;;4.20;3.80;;;8.40;99.90;;;;;;4920573;29;20207;-60
2022/02/05 06:11:13;;;;;;;3.70;3.40;;;8.30;99.90;;;;;;4919917;29;20276;-60
2022/02/05 06:13:44;;;;;;;6.90;4.20;;;8.40;99.90;;;;;;4916304;29;20227;-60
2022/02/05 06:16:18;;;;;;;4.47;4.07;;;8.40;99.90;;;;;;4920978;29;20402;-61
2022/02/05 06:18:50;;;;;;;4.30;3.90;;;8.30;99.90;;;;;;4921152;29;20206;-61
2022/02/05 06:21:21;;;;;;;4.30;3.90;;;8.20;99.90;;;;;;4921715;29;20321;-61
2022/02/05 06:23:52;;;;;;;5.25;4.53;;;8.20;99.90;;;;;;4937089;28;20207;-60
2022/02/05 06:26:22;;;;;;;4.78;4.32;;;8.20;99.90;;;;;;4977706;28;20303;-61
2022/02/05 06:28:53;;;;;;;5.10;4.20;;;8.20;99.90;;;;;;4987251;28;20189;-61
2022/02/05 06:31:24;;;;;;;5.30;4.60;;;8.10;99.90;;;;;;4986377;28;20193;-61
2022/02/05 06:33:57;;;;;;;5.35;3.95;;;8.10;99.90;;;;;;4992085;28;20204;-61
2022/02/05 06:36:28;;;;;;;5.22;4.72;;;8.20;99.90;;;;;;4983230;28;20215;-61
2022/02/05 06:38:59;;;;;;;4.35;3.97;;;8.30;99.90;;;;;;4983212;28;20208;-61
2022/02/05 06:41:30;;;;;;;4.93;4.53;;;8.30;99.90;;;;;;4993788;28;20204;-62
2022/02/05 06:44:00;;;;;;;5.05;4.65;;;8.30;99.90;;;;;;4986354;28;20200;-61
2022/02/05 06:46:32;;;;;;;5.28;4.43;;;8.40;99.90;;;;;;4978384;28;20735;-61
2022/02/05 06:49:05;;;;;;;4.80;4.40;;;8.30;99.90;;;;;;4982789;28;20201;-62
2022/02/05 06:51:36;;;;;;;4.60;4.20;;;8.40;99.90;;;;;;4982520;28;20197;-62
2022/02/05 06:54:07;;;;;;;4.55;4.25;;;8.40;99.90;;;;;;4982936;28;20276;-62
2022/02/05 06:56:38;;;;;;;4.22;3.83;;;8.40;99.90;;;;;;4988654;28;20256;-62
2022/02/05 06:59:08;;;;;;;6.28;4.47;;;8.50;99.90;;;;;;4986049;28;20658;-61
2022/02/05 07:01:40;;;;;;;5.32;4.82;;;8.50;99.90;;;;;;4981535;28;20520;-60
2022/02/05 07:04:13;;;;;;;4.70;4.30;;;8.50;99.90;;;;;;4982869;28;20207;-61
2022/02/05 07:06:45;;;;;;;5.10;4.72;;;8.50;99.90;;;;;;4984988;28;20247;-61
2022/02/05 07:09:16;;;;;;;4.90;4.50;;;8.60;99.90;;;;;;4995316;28;20239;-60
2022/02/05 07:11:47;;;;;;;4.70;4.32;;;8.60;99.90;;;;;;4985477;28;20193;-61
2022/02/05 07:14:20;;;;;;;5.13;4.63;;;8.80;99.90;;;;;;4991226;28;20231;-61
2022/02/05 07:16:56;;;;;;;5.40;3.90;;;8.90;99.90;;;;;;4982999;28;20205;-61
2022/02/05 07:19:39;;;;;;;6.05;4.82;;;8.90;99.90;;;;;;4988416;28;20250;-60
2022/02/05 07:22:10;;;;;;;4.50;3.97;;;8.80;99.90;;;;;;4982719;28;20263;-61
2022/02/05 07:25:02;;;;;;;4.05;3.75;;;8.80;99.90;;;;;;4982663;28;21036;-61
2022/02/05 07:30:21;;;;;;;5.03;4.63;;;8.70;99.90;;;;;;4983127;28;20204;-61
2022/02/05 07:32:56;;;;;;;4.55;4.15;;;8.70;99.90;;;;;;4982286;28;20323;-61
2022/02/05 07:35:31;;;;;;;4.47;4.05;;;8.70;99.90;;;;;;4986101;28;20199;-60
2022/02/05 07:38:02;;;;;;;4.15;3.80;;;8.70;99.90;;;;;;4988965;28;20290;-60
2022/02/05 07:40:36;;;;;;;4.18;3.75;;;8.60;99.90;;;;;;4983267;28;20239;-60
2022/02/05 07:43:07;;;;;;;4.38;3.95;;;8.60;99.90;;;;;;4980425;28;20206;-61
2022/02/05 07:45:38;;;;;;;6.18;4.65;;;8.60;99.90;;;;;;4983853;28;20284;-60
2022/02/05 07:48:09;;;;;;;5.60;4.10;;;8.40;99.90;;;;;;4985747;28;20275;-60
2022/02/05 07:50:41;;;;;;;4.32;3.92;;;8.30;99.90;;;;;;4981232;28;20192;-61
2022/02/05 07:53:12;;;;;;;4.45;4.05;;;8.20;99.90;;;;;;4982816;28;20201;-61
2022/02/05 07:55:43;;;;;;;3.67;3.38;;;8.10;99.90;;;;;;4983480;28;20208;-60
2022/02/05 07:58:14;;;;;;;4.35;3.95;;;8.10;99.90;;;;;;4987278;28;20204;-61
2022/02/05 08:00:45;;;;;;;5.30;4.80;;;8.00;99.90;;;;;;4985980;28;20319;-60
2022/02/05 08:03:18;;;;;;;4.88;4.47;;;7.90;99.90;;;;;;4985833;28;20244;-59
2022/02/05 08:05:51;;;;;;;4.63;4.22;;;7.80;99.90;;;;;;4980788;28;20311;-60
2022/02/05 08:08:25;;;;;;;4.80;4.40;;;7.70;99.90;;;;;;4990415;28;20200;-60
2022/02/05 08:11:00;;;;;;;4.57;4.20;;;7.70;99.90;;;;;;4987875;28;20204;-60
2022/02/05 08:13:32;;;;;;;4.97;4.47;;;7.60;99.90;;;;;;4988284;28;20205;-61
2022/02/05 08:16:12;;;;;;;4.57;4.18;;;7.60;99.90;;;;;;4980805;28;20197;-60
2022/02/05 08:18:43;;;;;;;4.50;4.20;;;7.60;99.90;;;;;;4969908;28;20195;-61
2022/02/05 08:21:16;;;;;;;4.70;4.30;;;7.50;99.90;;;;;;4978646;28;20258;-60
2022/02/05 08:23:50;;;;;;;5.22;4.35;;;7.50;99.90;;;;;;4976551;28;20204;-61
2022/02/05 08:26:27;;;;;;;4.45;4.05;;;7.40;99.90;;;;;;4989073;28;20231;-60
2022/02/05 08:29:09;;;;;;;4.68;4.28;;;7.40;99.90;;;;;;4989536;28;20204;-60
2022/02/05 08:31:40;;;;;;;5.18;4.70;;;7.40;99.90;;;;;;4992710;28;20543;-61
2022/02/05 08:34:12;;;;;;;5.85;5.05;;;7.40;99.90;;;;;;4990224;28;20201;-60
2022/02/05 08:36:46;;;;;;;5.10;4.70;;;7.50;99.90;;;;;;4987165;28;20195;-61
2022/02/05 08:39:18;;;;;;;5.45;4.95;;;7.50;99.90;;;;;;4985638;28;20200;-60
2022/02/05 08:41:48;;;;;;;5.95;5.35;;;7.50;99.90;;;;;;4984733;28;20233;-60
2022/02/05 08:44:19;;;;;;;6.47;5.88;;;7.50;99.90;;;;;;4986256;28;20205;-61
2022/02/05 08:47:00;;;;;;;5.38;4.88;;;7.60;99.90;;;;;;4979812;28;20323;-61
2022/02/05 08:49:31;;;;;;;5.88;5.25;;;7.70;99.90;;;;;;4985856;28;20203;-60
2022/02/05 08:52:11;;;;;;;7.03;4.40;;;7.70;99.90;;;;;;4984585;28;20256;-61
2022/02/05 08:54:42;;;;;;;5.18;4.68;;;7.80;99.90;;;;;;4985620;28;20646;-60
2022/02/05 08:57:13;;;;;;;4.80;4.40;;;7.90;99.90;;;;;;4986395;28;20204;-60
2022/02/05 08:59:51;;;;;;;6.97;6.30;;;8.00;99.90;;;;;;4986663;28;20205;-60
2022/02/05 09:02:29;;;;;;;8.10;7.30;;;8.00;99.90;;;;;;4984802;28;20317;-60
2022/02/05 09:05:08;;;;;;;9.65;7.45;;;8.20;99.90;;;;;;4985009;28;20233;-60
2022/02/05 09:07:42;;;;;;;7.03;6.43;;;8.10;99.90;;;;;;4984687;28;20226;-61
2022/02/05 09:10:27;;;;;;;7.90;7.20;;;8.10;99.90;;;;;;4986454;28;20194;-60
2022/02/05 09:15:44;;;;;;;9.95;8.35;;;8.20;99.90;;;;;;4985301;28;20212;-60
2022/02/05 09:18:15;;;;;;;10.40;9.02;;;8.20;99.90;;;;;;4986775;28;20220;-60
2022/02/05 09:20:46;;;;;;;9.70;8.80;;;8.20;99.90;;;;;;4985121;28;20354;-61
2022/02/05 09:23:18;;;;;;;10.50;9.48;;;8.10;99.90;;;;;;4985690;28;20329;-61
2022/02/05 09:25:49;;;;;;;11.55;8.93;;;8.10;99.90;;;;;;4988821;28;20200;-58
2022/02/05 09:28:22;;;;;;;12.10;10.10;;;8.10;99.90;;;;;;4985499;28;20238;-60
2022/02/05 09:31:23;;;;;;;10.23;9.23;;;8.10;99.90;;;;;;4978343;28;20211;-59
2022/02/05 09:33:53;;;;;;;11.30;10.13;;;8.00;99.90;;;;;;4982223;28;20637;-61
2022/02/05 09:36:26;;;;;;;9.60;8.70;;;8.00;99.90;;;;;;4987330;28;20219;-61
2022/02/05 09:38:59;;;;;;;10.05;9.00;;;8.00;99.90;;;;;;4987174;28;20272;-59
2022/02/05 09:41:30;;;;;;;10.02;9.13;;;8.00;99.90;;;;;;4983633;28;20226;-59
2022/02/05 09:44:00;;;;;;;10.30;9.40;;;8.00;99.90;;;;;;4975379;28;20504;-59
2022/02/05 09:46:33;;;;;;;10.27;9.00;;;8.00;99.90;;;;;;4985025;28;20232;-58
2022/02/05 09:49:05;;;;;;;9.95;9.05;;;8.00;99.90;;;;;;4985000;28;20208;-59
2022/02/05 09:51:44;;;;;;;12.70;10.43;;;8.00;99.90;;;;;;4982662;28;20209;-58
2022/02/05 09:54:20;;;;;;;10.38;9.20;;;8.00;99.90;;;;;;4985905;28;20212;-60
2022/02/05 09:56:53;;;;;;;9.93;8.88;;;8.00;99.90;;;;;;4988505;28;20207;-58
2022/02/05 09:59:24;;;;;;;11.52;10.43;;;8.10;99.90;;;;;;4984494;28;20204;-61
2022/02/05 10:02:25;;;;;;;10.77;9.75;;;8.10;99.90;;;;;;4985554;28;20219;-61
2022/02/05 10:04:58;;;;;;;12.07;9.95;;;8.00;99.90;;;;;;4984871;28;20231;-59
2022/02/05 10:07:59;;;;;;;12.05;10.80;;;8.00;99.90;;;;;;4978122;28;20235;-59
2022/02/05 10:10:44;;;;;;;10.98;9.98;;;8.00;99.90;;;;;;4983993;28;20200;-59
2022/02/05 10:13:18;;;;;;;11.60;10.40;;;8.00;99.90;;;;;;4984063;28;20325;-59
2022/02/05 10:15:54;;;;;;;11.02;9.52;;;8.00;99.90;;;;;;4987109;28;20255;-59
2022/02/05 10:18:26;;;;;;;11.10;10.02;;;8.10;99.90;;;;;;4990807;28;20207;-59
2022/02/05 10:20:57;;;;;;;11.88;10.55;;;8.00;99.90;;;;;;4989305;28;20247;-59
2022/02/05 10:23:29;;;;;;;12.00;10.90;;;8.00;99.90;;;;;;4983666;28;20200;-59
2022/02/05 10:26:02;;;;;;;12.45;10.40;;;8.10;99.90;;;;;;4984843;28;20346;-59
2022/02/05 10:28:32;;;;;;;11.00;8.73;;;8.10;99.90;;;;;;4981643;28;20224;-61
2022/02/05 10:31:03;;;;;;;15.73;11.18;;;8.00;99.90;;;;;;4983191;28;20201;-60
2022/02/05 10:33:35;;;;;;;12.13;10.27;;;7.90;99.90;;;;;;4973904;28;20271;-61
2022/02/05 10:36:14;;;;;;;12.20;10.20;;;7.90;99.90;;;;;;4984788;28;20211;-59
2022/02/05 10:39:08;;;;;;;11.75;10.25;;;7.90;99.90;;;;;;4983878;28;20216;-59
2022/02/05 10:44:32;;;;;;;10.40;8.80;;;7.80;99.90;;;;;;4988439;28;20209;-59
2022/02/05 10:47:04;;;;;;;11.88;10.65;;;7.80;99.90;;;;;;4983202;28;20742;-59
2022/02/05 10:49:46;;;;;;;12.73;11.30;;;7.80;99.90;;;;;;4983192;28;20204;-59
2022/02/05 10:52:27;;;;;;;11.80;9.90;;;7.70;99.90;;;;;;4981852;28;20608;-59
2022/02/05 10:55:06;;;;;;;13.82;11.50;;;7.70;99.90;;;;;;4982356;28;20227;-59
2022/02/05 10:57:53;;;;;;;13.70;10.88;;;7.70;99.90;;;;;;4994352;28;20303;-59
2022/02/05 11:06:07;;;;;;;11.38;9.35;;;7.70;99.90;;;;;;4985616;28;20228;-59
2022/02/05 11:08:39;;;;;;;11.25;9.95;;;7.70;99.90;;;;;;4977841;28;20261;-59
2022/02/05 11:16:57;;;;;;;11.52;9.65;;;7.60;99.90;;;;;;4966544;28;20216;-59
2022/02/05 11:19:28;;;;;;;11.70;9.50;;;7.60;99.90;;;;;;4983000;28;20218;-60
2022/02/05 11:21:59;;;;;;;11.18;9.90;;;7.60;99.90;;;;;;4987219;28;20208;-59
2022/02/05 11:24:32;;;;;;;11.07;9.25;;;7.60;99.90;;;;;;4983081;28;20292;-60
2022/02/05 11:27:03;;;;;;;10.98;9.75;;;7.60;99.90;;;;;;4985368;28;20633;-59
2022/02/05 11:29:36;;;;;;;12.18;10.07;;;7.60;99.90;;;;;;4982158;28;20209;-59
2022/02/05 11:32:29;;;;;;;12.20;9.93;;;7.50;99.90;;;;;;4975976;28;20201;-59
2022/02/05 11:35:08;;;;;;;12.05;10.45;;;7.50;99.90;;;;;;4985161;28;20208;-59
2022/02/05 11:38:00;;;;;;;11.02;9.80;;;7.40;99.90;;;;;;4983205;28;20609;-59
2022/02/05 11:40:49;;;;;;;11.05;8.88;;;7.50;99.90;;;;;;4981369;28;20215;-59
2022/02/05 11:43:22;;;;;;;10.70;9.60;;;7.50;99.90;;;;;;4977479;28;20204;-59
2022/02/05 11:46:11;;;;;;;11.73;10.25;;;7.50;99.90;;;;;;4984221;28;20274;-59
2022/02/05 11:48:54;;;;;;;10.80;8.90;;;7.50;99.90;;;;;;4981646;28;20222;-59
2022/02/05 11:51:28;;;;;;;12.60;10.50;;;7.50;99.90;;;;;;4974402;28;20227;-60
2022/02/05 11:54:16;;;;;;;12.57;9.57;;;7.60;99.90;;;;;;4983119;28;20236;-59
2022/02/05 11:56:50;;;;;;;13.00;10.82;;;7.50;99.90;;;;;;4987215;28;20205;-59
2022/02/05 11:59:26;;;;;;;12.30;10.25;;;7.60;99.90;;;;;;4983352;28;20206;-60
2022/02/05 12:02:21;;;;;;;12.40;10.40;;;7.60;99.90;;;;;;4982860;28;20299;-60
2022/02/05 12:05:13;;;;;;;10.75;9.57;;;7.60;99.90;;;;;;4980586;28;20255;-60
2022/02/05 12:08:19;;;;;;;12.23;10.02;;;7.60;99.90;;;;;;4972530;28;20246;-60
2022/02/05 12:10:52;;;;;;;12.32;9.82;;;7.60;99.90;;;;;;4996280;28;20200;-59
2022/02/05 12:13:26;;;;;;;11.07;9.95;;;7.50;99.90;;;;;;4985782;28;20208;-59
2022/02/05 12:16:22;;;;;;;12.93;11.13;;;7.50;99.90;;;;;;4987378;28;20184;-60
2022/02/05 12:19:16;;;;;;;11.57;9.68;;;7.50;99.90;;;;;;4987684;28;20197;-59
2022/02/05 12:21:59;;;;;;;13.32;10.30;;;7.30;99.90;;;;;;4986085;28;20207;-59
2022/02/05 12:24:50;;;;;;;11.43;10.10;;;7.30;99.90;;;;;;4986266;28;20208;-60
2022/02/05 12:27:36;;;;;;;11.60;9.82;;;7.30;99.90;;;;;;4983795;28;20324;-61
2022/02/05 12:30:39;;;;;;;12.60;11.15;;;7.40;99.90;;;;;;4989769;28;20286;-59
2022/02/05 12:33:12;;;;;;;13.00;9.73;;;7.30;99.90;;;;;;4993536;28;20211;-59
2022/02/05 12:35:55;;;;;;;12.10;9.52;;;7.30;99.90;;;;;;4984801;28;20200;-59
2022/02/05 12:38:26;;;;;;;12.50;10.05;;;7.40;99.90;;;;;;4978975;28;20219;-60
2022/02/05 12:40:57;;;;;;;11.88;10.57;;;7.40;99.90;;;;;;4986362;28;20296;-59
2022/02/05 12:43:31;;;;;;;12.13;10.23;;;7.40;99.90;;;;;;4985517;28;20215;-59
2022/02/05 12:46:09;;;;;;;12.32;10.00;;;7.40;99.90;;;;;;4986425;28;20197;-60
2022/02/05 12:48:43;;;;;;;11.73;10.52;;;7.40;99.90;;;;;;4971455;28;20307;-60
2022/02/05 12:51:16;;;;;;;13.30;10.15;;;7.40;99.90;;;;;;4997306;28;20201;-60
2022/02/05 12:53:47;;;;;;;11.20;10.10;;;7.40;99.90;;;;;;4986931;28;20237;-60
2022/02/05 12:56:19;;;;;;;10.48;9.38;;;7.40;99.90;;;;;;4985501;28;20201;-60
2022/02/05 12:59:01;;;;;;;11.35;9.75;;;7.40;99.90;;;;;;4986336;28;20207;-60
2022/02/05 13:01:33;;;;;;;10.45;9.38;;;7.40;99.90;;;;;;4984626;28;20274;-60
2022/02/05 13:04:14;;;;;;;10.50;9.30;;;7.50;99.90;;;;;;4985300;28;20204;-60
2022/02/05 13:06:46;;;;;;;13.35;9.30;;;7.50;99.90;;;;;;4985411;28;20267;-60
2022/02/05 13:09:22;;;;;;;10.75;9.65;;;7.40;99.90;;;;;;4988198;28;20255;-60
2022/02/05 13:11:59;;;;;;;17.02;9.60;;;7.40;99.90;;;;;;4987956;28;20308;-60
2022/02/05 13:14:45;;;;;;;11.85;9.05;;;7.40;99.90;;;;;;4985567;28;20212;-60
2022/02/05 13:17:43;;;;;;;10.35;9.10;;;7.40;99.90;;;;;;4984495;28;20200;-60
2022/02/05 13:26:15;;;;;;;9.77;8.80;;;7.50;99.90;;;;;;4984543;28;20193;-60
2022/02/05 13:29:13;;;;;;;8.82;8.02;;;7.50;99.90;;;;;;4995653;28;20237;-60
2022/02/05 13:34:35;;;;;;;9.35;8.27;;;7.50;99.90;;;;;;4984379;28;20214;-61
2022/02/05 13:37:14;;;;;;;10.82;8.60;;;7.50;99.90;;;;;;4986637;28;20200;-60
2022/02/05 13:39:56;;;;;;;11.55;7.65;;;7.50;99.90;;;;;;4985402;28;20283;-60
2022/02/05 13:42:31;;;;;;;9.05;7.60;;;7.50;99.90;;;;;;4984503;28;20219;-61
2022/02/05 13:45:11;;;;;;;9.07;7.78;;;7.60;99.90;;;;;;4984207;28;20227;-61
2022/02/05 13:47:52;;;;;;;10.07;8.52;;;7.60;99.90;;;;;;4982670;28;20199;-62
2022/02/05 13:50:25;;;;;;;7.95;7.00;;;7.50;99.90;;;;;;4980414;28;20226;-60
2022/02/05 13:53:00;;;;;;;8.57;7.68;;;7.50;99.90;;;;;;4981438;28;20303;-61
2022/02/05 13:55:40;;;;;;;8.82;7.85;;;7.50;99.90;;;;;;4984588;28;20200;-61
2022/02/05 13:58:12;;;;;;;10.98;7.90;;;7.60;99.90;;;;;;4984533;28;20284;-60
2022/02/05 14:00:46;;;;;;;11.32;8.45;;;7.60;99.90;;;;;;4980776;28;20201;-62
2022/02/05 14:03:18;;;;;;;9.18;8.13;;;7.70;99.90;;;;;;4979000;28;20204;-61
2022/02/05 14:06:02;;;;;;;9.55;8.55;;;7.60;99.90;;;;;;4986598;28;20283;-61
2022/02/05 14:08:37;;;;;;;9.02;7.75;;;7.50;99.90;;;;;;4982417;28;20193;-61
2022/02/05 14:11:10;;;;;;;8.57;7.75;;;7.50;99.90;;;;;;4984158;28;20551;-61
2022/02/05 14:13:42;;;;;;;8.85;7.65;;;7.50;99.90;;;;;;4982609;28;20280;-61
2022/02/05 14:16:14;;;;;;;9.75;8.07;;;7.50;99.90;;;;;;4981183;28;20236;-61
2022/02/05 14:18:52;;;;;;;10.18;7.57;;;7.50;99.90;;;;;;4985743;28;20275;-60
2022/02/05 14:21:33;;;;;;;10.73;8.63;;;7.40;99.90;;;;;;4984164;28;20207;-61
2022/02/05 14:24:06;;;;;;;8.65;7.32;;;7.40;99.90;;;;;;4988389;28;20289;-61
2022/02/05 14:26:42;;;;;;;9.13;7.32;;;7.40;99.90;;;;;;4984095;28;20287;-61
2022/02/05 14:29:13;;;;;;;9.77;7.60;;;7.30;99.90;;;;;;4984486;28;20242;-60
2022/02/05 14:31:47;;;;;;;8.55;7.45;;;7.30;99.90;;;;;;4987798;28;20204;-61
2022/02/05 14:34:22;;;;;;;7.07;6.30;;;7.30;99.90;;;;;;4984510;28;20540;-61
2022/02/05 14:42:39;;;;;;;9.10;7.18;;;7.40;99.90;;;;;;4983245;28;20205;-60
2022/02/05 14:45:10;;;;;;;9.32;7.57;;;7.30;99.90;;;;;;4983361;28;20196;-61
2022/02/05 14:47:41;;;;;;;8.35;7.60;;;7.30;99.90;;;;;;4987267;28;20201;-61
2022/02/05 14:50:12;;;;;;;10.57;6.78;;;7.20;99.90;;;;;;4987066;28;20227;-60
2022/02/05 14:52:42;;;;;;;7.80;7.00;;;7.10;99.90;;;;;;4981734;28;20291;-61
2022/02/05 14:55:13;;;;;;;7.15;5.78;;;7.10;99.90;;;;;;4989347;28;20208;-61
2022/02/05 14:57:46;;;;;;;6.35;5.40;;;7.00;99.90;;;;;;4985361;28;20304;-60
2022/02/05 15:00:18;;;;;;;6.70;5.93;;;7.00;99.90;;;;;;4987012;28;20211;-61
2022/02/05 15:02:51;;;;;;;6.50;5.90;;;7.00;99.90;;;;;;4981883;28;20212;-61
2022/02/05 15:05:23;;;;;;;6.45;5.28;;;7.00;99.90;;;;;;4978402;28;20229;-61
2022/02/05 15:07:54;;;;;;;8.70;5.60;;;7.00;99.90;;;;;;4981520;28;20204;-61
2022/02/05 15:10:24;;;;;;;9.73;6.65;;;7.00;99.90;;;;;;4979531;28;20231;-61
2022/02/05 15:12:57;;;;;;;9.82;6.72;;;7.00;99.90;;;;;;4987765;28;20201;-61
2022/02/05 15:15:29;;;;;;;7.95;5.75;;;7.00;99.90;;;;;;4983391;28;20214;-61
2022/02/05 15:18:02;;;;;;;7.00;5.80;;;7.00;99.90;;;;;;4983421;28;20273;-61
2022/02/05 15:20:33;;;;;;;8.73;6.47;;;7.10;99.90;;;;;;4983243;28;20295;-60
2022/02/05 15:23:05;;;;;;;8.60;6.10;;;7.20;99.90;;;;;;4985362;28;20332;-61